sensor_id;sensor_type;location;lat;lon;timestamp;pressure;altitude;pressure_sealevel;temperature;humidity
5455;BME280;2750;49.050;9.250;2022-09-17T00:00:42;98413.38;;;12.24;99.04
5455;BME280;2750;49.050;9.250;2022-09-17T00:05:44;98420.13;;;12.12;99.51
5455;BME280;2750;49.050;9.250;2022-09-17T00:10:46;98420.63;;;12.33;98.48
5455;BME280;2750;49.050;9.250;2022-09-17T00:15:48;98416.75;;;12.40;98.10
5455;BME280;2750;49.050;9.250;2022-09-17T00:20:51;98417.66;;;12.25;97.47
5455;BME280;2750;49.050;9.250;2022-09-17T00:25:53;98415.19;;;12.08;98.14
5455;BME280;2750;49.050;9.250;2022-09-17T00:30:55;98417.00;;;12.21;97.71
5455;BME280;2750;49.050;9.250;2022-09-17T00:35:58;98417.38;;;12.29;96.92
5455;BME280;2750;49.050;9.250;2022-09-17T00:41:00;98422.06;;;12.09;97.43
5455;BME280;2750;49.050;9.250;2022-09-17T00:46:04;98419.44;;;11.94;97.68
5455;BME280;2750;49.050;9.250;2022-09-17T00:51:10;98428.03;;;11.65;98.66
5455;BME280;2750;49.050;9.250;2022-09-17T00:56:18;98429.41;;;11.72;98.73
5455;BME280;2750;49.050;9.250;2022-09-17T01:01:23;98424.50;;;11.66;98.74
5455;BME280;2750;49.050;9.250;2022-09-17T01:06:31;98433.78;;;11.72;99.14
5455;BME280;2750;49.050;9.250;2022-09-17T01:11:45;98431.69;;;11.92;98.50
5455;BME280;2750;49.050;9.250;2022-09-17T01:16:58;98425.81;;;11.89;97.78
5455;BME280;2750;49.050;9.250;2022-09-17T01:22:02;98441.19;;;12.08;96.57
5455;BME280;2750;49.050;9.250;2022-09-17T01:27:33;98441.31;;;11.76;97.94
5455;BME280;2750;49.050;9.250;2022-09-17T01:32:43;98446.50;;;11.76;98.08
5455;BME280;2750;49.050;9.250;2022-09-17T01:37:50;98452.69;;;11.58;99.24
5455;BME280;2750;49.050;9.250;2022-09-17T01:42:59;98445.69;;;11.29;100.00
5455;BME280;2750;49.050;9.250;2022-09-17T01:48:08;98437.44;;;11.52;98.36
5455;BME280;2750;49.050;9.250;2022-09-17T01:53:13;98448.44;;;11.57;97.95
5455;BME280;2750;49.050;9.250;2022-09-17T01:58:20;98445.31;;;11.50;97.52
5455;BME280;2750;49.050;9.250;2022-09-17T02:03:28;98454.97;;;11.64;97.75
5455;BME280;2750;49.050;9.250;2022-09-17T02:08:36;98450.19;;;11.72;96.57
5455;BME280;2750;49.050;9.250;2022-09-17T02:13:43;98456.56;;;11.51;97.62
5455;BME280;2750;49.050;9.250;2022-09-17T02:18:54;98457.19;;;11.70;97.47
5455;BME280;2750;49.050;9.250;2022-09-17T02:24:00;98461.06;;;11.63;96.98
5455;BME280;2750;49.050;9.250;2022-09-17T02:29:08;98458.84;;;12.03;94.97
5455;BME280;2750;49.050;9.250;2022-09-17T02:34:13;98455.47;;;12.01;95.20
5455;BME280;2750;49.050;9.250;2022-09-17T02:39:15;98456.28;;;11.87;95.00
5455;BME280;2750;49.050;9.250;2022-09-17T02:44:25;98453.75;;;11.85;95.62
5455;BME280;2750;49.050;9.250;2022-09-17T02:49:42;98456.94;;;12.20;93.97
5455;BME280;2750;49.050;9.250;2022-09-17T02:54:57;98458.47;;;12.09;95.04
5455;BME280;2750;49.050;9.250;2022-09-17T03:00:08;98448.63;;;12.00;94.81
5455;BME280;2750;49.050;9.250;2022-09-17T03:05:17;98459.22;;;11.65;96.26
5455;BME280;2750;49.050;9.250;2022-09-17T03:10:19;98449.00;;;11.62;96.41
5455;BME280;2750;49.050;9.250;2022-09-17T03:15:20;98441.59;;;11.70;95.77
5455;BME280;2750;49.050;9.250;2022-09-17T03:20:23;98446.31;;;11.64;95.85
5455;BME280;2750;49.050;9.250;2022-09-17T03:25:25;98441.97;;;11.64;96.00
5455;BME280;2750;49.050;9.250;2022-09-17T03:30:26;98454.28;;;11.61;96.27
5455;BME280;2750;49.050;9.250;2022-09-17T03:35:29;98443.50;;;11.52;96.69
5455;BME280;2750;49.050;9.250;2022-09-17T03:40:30;98447.19;;;11.33;97.03
5455;BME280;2750;49.050;9.250;2022-09-17T03:45:32;98452.72;;;11.27;97.08
5455;BME280;2750;49.050;9.250;2022-09-17T03:50:34;98443.91;;;11.29;96.72
5455;BME280;2750;49.050;9.250;2022-09-17T03:55:36;98460.66;;;11.24;97.72
5455;BME280;2750;49.050;9.250;2022-09-17T04:00:38;98466.94;;;11.04;98.01
5455;BME280;2750;49.050;9.250;2022-09-17T04:05:41;98467.41;;;10.79;99.58
5455;BME280;2750;49.050;9.250;2022-09-17T04:10:42;98466.19;;;10.53;100.00
5455;BME280;2750;49.050;9.250;2022-09-17T04:15:44;98475.75;;;10.69;100.00
5455;BME280;2750;49.050;9.250;2022-09-17T04:20:47;98470.75;;;10.48;100.00
5455;BME280;2750;49.050;9.250;2022-09-17T04:25:49;98479.22;;;10.52;100.00
5455;BME280;2750;49.050;9.250;2022-09-17T04:30:50;98471.16;;;10.41;100.00
5455;BME280;2750;49.050;9.250;2022-09-17T04:35:53;98471.25;;;10.72;99.73
5455;BME280;2750;49.050;9.250;2022-09-17T04:40:54;98468.16;;;10.48;100.00
5455;BME280;2750;49.050;9.250;2022-09-17T04:45:56;98485.00;;;10.57;100.00
5455;BME280;2750;49.050;9.250;2022-09-17T04:50:59;98490.78;;;10.62;100.00
5455;BME280;2750;49.050;9.250;2022-09-17T04:56:01;98497.50;;;10.66;99.46
5455;BME280;2750;49.050;9.250;2022-09-17T05:01:02;98503.56;;;10.82;100.00
5455;BME280;2750;49.050;9.250;2022-09-17T05:06:05;98502.16;;;11.25;97.90
5455;BME280;2750;49.050;9.250;2022-09-17T05:11:07;98498.94;;;11.04;98.15
5455;BME280;2750;49.050;9.250;2022-09-17T05:16:08;98505.22;;;11.16;98.90
5455;BME280;2750;49.050;9.250;2022-09-17T05:21:11;98505.06;;;11.03;98.77
5455;BME280;2750;49.050;9.250;2022-09-17T05:26:13;98522.69;;;11.30;98.57
5455;BME280;2750;49.050;9.250;2022-09-17T05:31:15;98523.13;;;11.54;96.75
5455;BME280;2750;49.050;9.250;2022-09-17T05:36:17;98526.13;;;11.77;95.86
5455;BME280;2750;49.050;9.250;2022-09-17T05:41:19;98522.78;;;11.60;96.68
5455;BME280;2750;49.050;9.250;2022-09-17T05:46:20;98533.84;;;11.63;97.42
5455;BME280;2750;49.050;9.250;2022-09-17T05:51:23;98523.81;;;11.73;97.28
5455;BME280;2750;49.050;9.250;2022-09-17T05:56:25;98532.06;;;11.64;96.80
5455;BME280;2750;49.050;9.250;2022-09-17T06:01:26;98535.56;;;11.80;96.26
5455;BME280;2750;49.050;9.250;2022-09-17T06:06:29;98540.47;;;11.53;96.77
5455;BME280;2750;49.050;9.250;2022-09-17T06:11:31;98552.78;;;11.96;95.77
5455;BME280;2750;49.050;9.250;2022-09-17T06:16:32;98546.84;;;11.94;95.21
5455;BME280;2750;49.050;9.250;2022-09-17T06:21:35;98549.88;;;11.71;95.45
5455;BME280;2750;49.050;9.250;2022-09-17T06:26:37;98552.06;;;11.94;94.17
5455;BME280;2750;49.050;9.250;2022-09-17T06:31:38;98562.88;;;12.03;94.26
5455;BME280;2750;49.050;9.250;2022-09-17T06:36:41;98558.53;;;11.87;94.19
5455;BME280;2750;49.050;9.250;2022-09-17T06:41:42;98567.91;;;11.74;94.74
5455;BME280;2750;49.050;9.250;2022-09-17T06:46:48;98572.88;;;11.46;96.49
5455;BME280;2750;49.050;9.250;2022-09-17T06:51:51;98576.91;;;11.03;100.00
5455;BME280;2750;49.050;9.250;2022-09-17T06:56:53;98586.41;;;11.20;100.00
5455;BME280;2750;49.050;9.250;2022-09-17T07:01:54;98584.47;;;10.90;100.00
5455;BME280;2750;49.050;9.250;2022-09-17T07:06:58;98582.94;;;11.03;100.00
5455;BME280;2750;49.050;9.250;2022-09-17T07:12:00;98584.81;;;10.84;100.00
5455;BME280;2750;49.050;9.250;2022-09-17T07:17:02;98577.41;;;10.77;100.00
5455;BME280;2750;49.050;9.250;2022-09-17T07:22:05;98599.88;;;10.93;100.00
5455;BME280;2750;49.050;9.250;2022-09-17T07:27:07;98591.19;;;10.94;100.00
5455;BME280;2750;49.050;9.250;2022-09-17T07:32:08;98604.41;;;11.07;100.00
5455;BME280;2750;49.050;9.250;2022-09-17T07:37:11;98605.97;;;11.42;100.00
5455;BME280;2750;49.050;9.250;2022-09-17T07:42:13;98608.59;;;11.58;100.00
5455;BME280;2750;49.050;9.250;2022-09-17T07:47:14;98614.69;;;11.90;100.00
5455;BME280;2750;49.050;9.250;2022-09-17T07:52:17;98621.94;;;11.52;100.00
5455;BME280;2750;49.050;9.250;2022-09-17T07:57:18;98622.56;;;11.88;100.00
5455;BME280;2750;49.050;9.250;2022-09-17T08:02:20;98623.38;;;12.36;98.38
5455;BME280;2750;49.050;9.250;2022-09-17T08:07:23;98631.56;;;12.60;96.79
5455;BME280;2750;49.050;9.250;2022-09-17T08:12:24;98634.44;;;12.55;96.32
5455;BME280;2750;49.050;9.250;2022-09-17T08:17:26;98635.03;;;12.60;95.68
5455;BME280;2750;49.050;9.250;2022-09-17T08:22:28;98634.47;;;12.39;97.30
5455;BME280;2750;49.050;9.250;2022-09-17T08:27:31;98634.94;;;13.06;95.07
5455;BME280;2750;49.050;9.250;2022-09-17T08:32:32;98631.59;;;13.04;92.55
5455;BME280;2750;49.050;9.250;2022-09-17T08:37:35;98627.56;;;13.14;92.46
5455;BME280;2750;49.050;9.250;2022-09-17T08:42:48;98614.25;;;13.75;90.45
5455;BME280;2750;49.050;9.250;2022-09-17T08:47:54;98621.59;;;13.54;91.38
5455;BME280;2750;49.050;9.250;2022-09-17T08:53:13;98625.03;;;13.69;91.42
5455;BME280;2750;49.050;9.250;2022-09-17T08:58:47;98631.47;;;13.77;91.72
5455;BME280;2750;49.050;9.250;2022-09-17T09:04:04;98627.63;;;14.24;89.73
5455;BME280;2750;49.050;9.250;2022-09-17T09:09:14;98625.53;;;13.75;90.86
5455;BME280;2750;49.050;9.250;2022-09-17T09:14:19;98636.09;;;14.01;88.71
5455;BME280;2750;49.050;9.250;2022-09-17T09:19:24;98630.97;;;14.26;86.72
5455;BME280;2750;49.050;9.250;2022-09-17T09:24:33;98639.09;;;13.95;88.12
5455;BME280;2750;49.050;9.250;2022-09-17T09:29:41;98639.41;;;13.48;88.68
5455;BME280;2750;49.050;9.250;2022-09-17T09:34:45;98635.56;;;13.39;89.05
5455;BME280;2750;49.050;9.250;2022-09-17T09:39:50;98632.03;;;13.26;89.77
5455;BME280;2750;49.050;9.250;2022-09-17T09:44:53;98630.78;;;13.88;89.74
5455;BME280;2750;49.050;9.250;2022-09-17T09:50:18;98621.91;;;14.05;87.08
5455;BME280;2750;49.050;9.250;2022-09-17T09:55:48;98626.94;;;15.01;84.74
5455;BME280;2750;49.050;9.250;2022-09-17T10:00:53;98624.34;;;14.61;84.04
5455;BME280;2750;49.050;9.250;2022-09-17T10:05:56;98624.31;;;14.75;84.10
5455;BME280;2750;49.050;9.250;2022-09-17T10:11:01;98610.94;;;15.68;81.98
5455;BME280;2750;49.050;9.250;2022-09-17T10:16:15;98604.69;;;15.33;82.01
5455;BME280;2750;49.050;9.250;2022-09-17T10:21:19;98615.16;;;14.68;82.49
5455;BME280;2750;49.050;9.250;2022-09-17T10:26:25;98617.22;;;13.55;89.23
5455;BME280;2750;49.050;9.250;2022-09-17T10:31:45;98613.56;;;14.53;86.66
5455;BME280;2750;49.050;9.250;2022-09-17T10:36:47;98598.59;;;15.45;83.78
5455;BME280;2750;49.050;9.250;2022-09-17T10:41:54;98586.25;;;15.47;81.21
5455;BME280;2750;49.050;9.250;2022-09-17T10:47:11;98587.31;;;15.07;83.39
5455;BME280;2750;49.050;9.250;2022-09-17T10:52:22;98585.56;;;15.20;80.50
5455;BME280;2750;49.050;9.250;2022-09-17T10:57:43;98619.66;;;14.66;84.54
5455;BME280;2750;49.050;9.250;2022-09-17T11:03:18;98636.13;;;12.86;89.14
5455;BME280;2750;49.050;9.250;2022-09-17T11:08:28;98616.50;;;13.24;90.23
5455;BME280;2750;49.050;9.250;2022-09-17T11:13:40;98611.34;;;13.79;90.59
5455;BME280;2750;49.050;9.250;2022-09-17T11:18:51;98600.56;;;12.71;95.30
5455;BME280;2750;49.050;9.250;2022-09-17T11:24:16;98604.28;;;13.53;93.96
5455;BME280;2750;49.050;9.250;2022-09-17T11:29:39;98592.63;;;14.14;99.06
5455;BME280;2750;49.050;9.250;2022-09-17T11:34:46;98579.44;;;14.56;93.30
5455;BME280;2750;49.050;9.250;2022-09-17T11:39:56;98574.84;;;14.33;94.29
5455;BME280;2750;49.050;9.250;2022-09-17T11:45:03;98575.19;;;15.56;88.63
5455;BME280;2750;49.050;9.250;2022-09-17T11:50:15;98560.44;;;15.30;86.88
5455;BME280;2750;49.050;9.250;2022-09-17T11:55:23;98555.38;;;15.65;83.79
5455;BME280;2750;49.050;9.250;2022-09-17T12:00:35;98539.59;;;15.41;86.46
5455;BME280;2750;49.050;9.250;2022-09-17T12:05:42;98540.19;;;15.21;85.15
5455;BME280;2750;49.050;9.250;2022-09-17T12:10:48;98543.59;;;15.34;81.12
5455;BME280;2750;49.050;9.250;2022-09-17T12:16:05;98530.03;;;15.04;82.42
5455;BME280;2750;49.050;9.250;2022-09-17T12:21:09;98522.53;;;15.97;81.56
5455;BME280;2750;49.050;9.250;2022-09-17T12:26:27;98522.97;;;15.42;82.75
5455;BME280;2750;49.050;9.250;2022-09-17T12:31:35;98518.69;;;15.41;83.97
5455;BME280;2750;49.050;9.250;2022-09-17T12:36:45;98546.22;;;14.83;81.03
5455;BME280;2750;49.050;9.250;2022-09-17T12:42:00;98540.09;;;14.97;80.28
5455;BME280;2750;49.050;9.250;2022-09-17T12:47:29;98550.22;;;15.76;79.89
5455;BME280;2750;49.050;9.250;2022-09-17T12:52:45;98574.25;;;16.17;76.46
5455;BME280;2750;49.050;9.250;2022-09-17T12:58:00;98553.56;;;16.84;72.40
5455;BME280;2750;49.050;9.250;2022-09-17T13:03:12;98556.63;;;17.57;70.42
5455;BME280;2750;49.050;9.250;2022-09-17T13:08:47;98556.19;;;18.06;69.01
5455;BME280;2750;49.050;9.250;2022-09-17T13:13:58;98544.84;;;16.72;74.25
5455;BME280;2750;49.050;9.250;2022-09-17T13:19:20;98554.50;;;15.90;76.47
5455;BME280;2750;49.050;9.250;2022-09-17T13:24:28;98553.25;;;16.06;74.62
5455;BME280;2750;49.050;9.250;2022-09-17T13:29:58;98552.28;;;15.84;74.92
5455;BME280;2750;49.050;9.250;2022-09-17T13:35:48;98563.72;;;15.83;72.44
5455;BME280;2750;49.050;9.250;2022-09-17T13:40:50;98557.66;;;15.82;72.96
5455;BME280;2750;49.050;9.250;2022-09-17T13:46:13;98546.00;;;16.10;72.86
5455;BME280;2750;49.050;9.250;2022-09-17T13:51:48;98541.31;;;16.96;70.69
5455;BME280;2750;49.050;9.250;2022-09-17T13:57:12;98556.47;;;16.57;71.21
5455;BME280;2750;49.050;9.250;2022-09-17T14:02:33;98541.50;;;16.59;70.82
5455;BME280;2750;49.050;9.250;2022-09-17T14:07:45;98535.94;;;16.40;70.56
5455;BME280;2750;49.050;9.250;2022-09-17T14:12:52;98541.41;;;15.90;72.25
5455;BME280;2750;49.050;9.250;2022-09-17T14:17:55;98532.63;;;16.95;71.86
5455;BME280;2750;49.050;9.250;2022-09-17T14:22:59;98524.63;;;16.40;73.35
5455;BME280;2750;49.050;9.250;2022-09-17T14:28:05;98520.84;;;16.90;71.82
5455;BME280;2750;49.050;9.250;2022-09-17T14:33:14;98527.00;;;16.43;74.01
5455;BME280;2750;49.050;9.250;2022-09-17T14:38:20;98527.22;;;16.05;75.14
5455;BME280;2750;49.050;9.250;2022-09-17T14:43:34;98513.34;;;16.50;74.60
5455;BME280;2750;49.050;9.250;2022-09-17T14:48:40;98506.72;;;16.57;75.62
5455;BME280;2750;49.050;9.250;2022-09-17T14:53:42;98506.00;;;15.97;74.89
5455;BME280;2750;49.050;9.250;2022-09-17T14:58:47;98507.47;;;15.88;75.14
5455;BME280;2750;49.050;9.250;2022-09-17T15:03:49;98495.47;;;16.44;74.78
5455;BME280;2750;49.050;9.250;2022-09-17T15:08:56;98500.72;;;16.55;74.73
5455;BME280;2750;49.050;9.250;2022-09-17T15:13:57;98504.66;;;16.26;74.67
5455;BME280;2750;49.050;9.250;2022-09-17T15:19:00;98507.59;;;16.45;74.16
5455;BME280;2750;49.050;9.250;2022-09-17T15:24:12;98506.69;;;15.99;74.23
5455;BME280;2750;49.050;9.250;2022-09-17T15:29:20;98490.47;;;16.52;73.22
5455;BME280;2750;49.050;9.250;2022-09-17T15:34:23;98485.56;;;16.94;72.35
5455;BME280;2750;49.050;9.250;2022-09-17T15:39:29;98503.69;;;16.97;72.87
5455;BME280;2750;49.050;9.250;2022-09-17T15:44:31;98501.31;;;17.05;71.25
5455;BME280;2750;49.050;9.250;2022-09-17T15:49:34;98497.06;;;16.58;72.64
5455;BME280;2750;49.050;9.250;2022-09-17T15:54:38;98497.34;;;16.77;72.03
5455;BME280;2750;49.050;9.250;2022-09-17T15:59:40;98488.38;;;15.99;73.01
5455;BME280;2750;49.050;9.250;2022-09-17T16:04:41;98497.94;;;17.03;71.42
5455;BME280;2750;49.050;9.250;2022-09-17T16:09:46;98520.66;;;16.10;73.75
5455;BME280;2750;49.050;9.250;2022-09-17T16:14:50;98528.31;;;16.13;73.76
5455;BME280;2750;49.050;9.250;2022-09-17T16:19:53;98526.75;;;15.63;74.23
5455;BME280;2750;49.050;9.250;2022-09-17T16:24:56;98540.91;;;15.72;75.02
5455;BME280;2750;49.050;9.250;2022-09-17T16:30:01;98533.97;;;15.60;74.07
5455;BME280;2750;49.050;9.250;2022-09-17T16:35:04;98537.13;;;15.40;75.08
5455;BME280;2750;49.050;9.250;2022-09-17T16:40:09;98539.84;;;15.25;75.28
5455;BME280;2750;49.050;9.250;2022-09-17T16:45:11;98534.44;;;14.78;76.47
5455;BME280;2750;49.050;9.250;2022-09-17T16:50:15;98547.59;;;15.14;76.46
5455;BME280;2750;49.050;9.250;2022-09-17T16:55:19;98556.19;;;14.78;77.93
5455;BME280;2750;49.050;9.250;2022-09-17T17:00:20;98559.72;;;15.28;76.52
5455;BME280;2750;49.050;9.250;2022-09-17T17:05:23;98555.97;;;15.07;77.27
5455;BME280;2750;49.050;9.250;2022-09-17T17:10:26;98565.53;;;14.68;77.59
5455;BME280;2750;49.050;9.250;2022-09-17T17:15:28;98570.53;;;14.46;76.85
5455;BME280;2750;49.050;9.250;2022-09-17T17:20:29;98570.22;;;14.24;78.34
5455;BME280;2750;49.050;9.250;2022-09-17T17:25:32;98580.53;;;14.40;80.36
5455;BME280;2750;49.050;9.250;2022-09-17T17:30:34;98588.06;;;14.44;81.20
5455;BME280;2750;49.050;9.250;2022-09-17T17:35:37;98588.41;;;14.25;82.09
5455;BME280;2750;49.050;9.250;2022-09-17T17:40:40;98589.84;;;14.44;82.25
5455;BME280;2750;49.050;9.250;2022-09-17T17:45:41;98601.59;;;14.10;84.68
5455;BME280;2750;49.050;9.250;2022-09-17T17:50:43;98604.19;;;13.69;86.70
5455;BME280;2750;49.050;9.250;2022-09-17T17:55:56;98615.00;;;13.63;88.35
5455;BME280;2750;49.050;9.250;2022-09-17T18:00:58;98613.50;;;13.59;88.42
5455;BME280;2750;49.050;9.250;2022-09-17T18:06:03;98613.22;;;13.49;89.03
5455;BME280;2750;49.050;9.250;2022-09-17T18:11:08;98615.38;;;13.71;88.73
5455;BME280;2750;49.050;9.250;2022-09-17T18:16:11;98622.16;;;13.73;88.19
5455;BME280;2750;49.050;9.250;2022-09-17T18:21:14;98631.84;;;13.57;89.22
5455;BME280;2750;49.050;9.250;2022-09-17T18:26:19;98633.31;;;13.89;89.41
5455;BME280;2750;49.050;9.250;2022-09-17T18:31:22;98644.16;;;13.41;92.65
5455;BME280;2750;49.050;9.250;2022-09-17T18:36:25;98656.22;;;13.14;93.84
5455;BME280;2750;49.050;9.250;2022-09-17T18:41:30;98657.72;;;13.32;92.06
5455;BME280;2750;49.050;9.250;2022-09-17T18:46:32;98659.75;;;13.27;92.61
5455;BME280;2750;49.050;9.250;2022-09-17T18:51:33;98668.53;;;13.26;91.99
5455;BME280;2750;49.050;9.250;2022-09-17T18:56:36;98660.13;;;13.49;89.52
5455;BME280;2750;49.050;9.250;2022-09-17T19:01:39;98673.38;;;13.46;90.47
5455;BME280;2750;49.050;9.250;2022-09-17T19:06:40;98675.06;;;13.47;89.95
5455;BME280;2750;49.050;9.250;2022-09-17T19:11:43;98689.56;;;13.37;90.98
5455;BME280;2750;49.050;9.250;2022-09-17T19:16:45;98698.38;;;13.20;92.23
5455;BME280;2750;49.050;9.250;2022-09-17T19:21:47;98701.34;;;12.99;93.71
5455;BME280;2750;49.050;9.250;2022-09-17T19:26:50;98720.94;;;12.44;95.41
5455;BME280;2750;49.050;9.250;2022-09-17T19:31:52;98722.94;;;12.55;95.03
5455;BME280;2750;49.050;9.250;2022-09-17T19:36:54;98733.69;;;12.65;94.34
5455;BME280;2750;49.050;9.250;2022-09-17T19:41:56;98746.78;;;12.63;92.69
5455;BME280;2750;49.050;9.250;2022-09-17T19:46:58;98753.72;;;12.31;92.12
5455;BME280;2750;49.050;9.250;2022-09-17T19:52:00;98757.84;;;12.35;90.35
5455;BME280;2750;49.050;9.250;2022-09-17T19:57:03;98770.28;;;12.46;88.36
5455;BME280;2750;49.050;9.250;2022-09-17T20:02:04;98764.41;;;12.58;86.98
5455;BME280;2750;49.050;9.250;2022-09-17T20:07:06;98756.63;;;12.88;85.31
5455;BME280;2750;49.050;9.250;2022-09-17T20:12:09;98755.00;;;12.71;85.45
5455;BME280;2750;49.050;9.250;2022-09-17T20:17:10;98754.41;;;12.66;84.60
5455;BME280;2750;49.050;9.250;2022-09-17T20:22:12;98760.72;;;12.62;85.61
5455;BME280;2750;49.050;9.250;2022-09-17T20:27:15;98764.56;;;12.55;85.84
5455;BME280;2750;49.050;9.250;2022-09-17T20:32:17;98778.84;;;12.48;87.58
5455;BME280;2750;49.050;9.250;2022-09-17T20:37:18;98775.31;;;12.33;88.83
5455;BME280;2750;49.050;9.250;2022-09-17T20:42:21;98762.84;;;12.23;89.82
5455;BME280;2750;49.050;9.250;2022-09-17T20:47:23;98769.47;;;12.45;88.09
5455;BME280;2750;49.050;9.250;2022-09-17T20:52:24;98774.81;;;12.42;86.25
5455;BME280;2750;49.050;9.250;2022-09-17T20:57:29;98769.16;;;12.81;84.04
5455;BME280;2750;49.050;9.250;2022-09-17T21:02:31;98779.59;;;12.81;84.77
5455;BME280;2750;49.050;9.250;2022-09-17T21:07:33;98774.31;;;12.52;85.99
5455;BME280;2750;49.050;9.250;2022-09-17T21:12:36;98790.09;;;12.33;88.52
5455;BME280;2750;49.050;9.250;2022-09-17T21:17:37;98780.28;;;12.05;90.96
5455;BME280;2750;49.050;9.250;2022-09-17T21:22:41;98799.94;;;12.11;92.32
5455;BME280;2750;49.050;9.250;2022-09-17T21:27:44;98814.16;;;12.04;93.16
5455;BME280;2750;49.050;9.250;2022-09-17T21:32:49;98814.66;;;12.27;93.09
5455;BME280;2750;49.050;9.250;2022-09-17T21:37:51;98818.16;;;12.11;94.32
5455;BME280;2750;49.050;9.250;2022-09-17T21:42:54;98815.50;;;12.28;93.92
5455;BME280;2750;49.050;9.250;2022-09-17T21:47:55;98812.50;;;12.03;95.53
5455;BME280;2750;49.050;9.250;2022-09-17T21:52:57;98811.38;;;12.24;95.04
5455;BME280;2750;49.050;9.250;2022-09-17T21:57:59;98800.97;;;12.24;94.75
5455;BME280;2750;49.050;9.250;2022-09-17T22:03:01;98814.22;;;12.19;94.74
5455;BME280;2750;49.050;9.250;2022-09-17T22:08:03;98812.84;;;12.12;94.77
5455;BME280;2750;49.050;9.250;2022-09-17T22:13:06;98807.03;;;12.40;93.72
5455;BME280;2750;49.050;9.250;2022-09-17T22:18:08;98806.69;;;12.30;93.47
5455;BME280;2750;49.050;9.250;2022-09-17T22:23:09;98803.53;;;12.41;93.66
5455;BME280;2750;49.050;9.250;2022-09-17T22:28:12;98813.28;;;12.53;92.68
5455;BME280;2750;49.050;9.250;2022-09-17T22:33:15;98807.53;;;12.31;92.89
5455;BME280;2750;49.050;9.250;2022-09-17T22:38:16;98806.00;;;12.27;92.82
5455;BME280;2750;49.050;9.250;2022-09-17T22:43:19;98802.16;;;12.50;92.02
5455;BME280;2750;49.050;9.250;2022-09-17T22:48:20;98805.97;;;12.44;92.83
5455;BME280;2750;49.050;9.250;2022-09-17T22:53:22;98811.75;;;12.33;92.50
5455;BME280;2750;49.050;9.250;2022-09-17T22:58:25;98807.00;;;12.24;92.43
5455;BME280;2750;49.050;9.250;2022-09-17T23:03:27;98802.19;;;12.34;92.24
5455;BME280;2750;49.050;9.250;2022-09-17T23:08:29;98810.28;;;12.28;91.75
5455;BME280;2750;49.050;9.250;2022-09-17T23:13:32;98803.53;;;12.57;90.94
5455;BME280;2750;49.050;9.250;2022-09-17T23:18:34;98809.06;;;12.51;91.49
5455;BME280;2750;49.050;9.250;2022-09-17T23:23:36;98804.63;;;12.37;92.30
5455;BME280;2750;49.050;9.250;2022-09-17T23:28:39;98792.16;;;12.42;91.87
5455;BME280;2750;49.050;9.250;2022-09-17T23:33:41;98789.41;;;12.76;91.93
5455;BME280;2750;49.050;9.250;2022-09-17T23:38:44;98791.75;;;12.50;92.79
5455;BME280;2750;49.050;9.250;2022-09-17T23:43:49;98798.72;;;12.33;93.22
5455;BME280;2750;49.050;9.250;2022-09-17T23:48:51;98799.75;;;12.62;92.32
5455;BME280;2750;49.050;9.250;2022-09-17T23:53:53;98802.34;;;12.62;90.66
5455;BME280;2750;49.050;9.250;2022-09-17T23:58:58;98803.13;;;12.16;92.00
